Time;durP1;ratioP1;P1;durP2;ratioP2;P2;SDS_P1;SDS_P2;PMS_P1;PMS_P2;Temp;Humidity;BMP_temperature;BMP_pressure;BME280_temperature;BME280_humidity;BME280_pressure;Samples;Min_cycle;Max_cycle;Signal;HPM_P1;HPM_P2
2022/11/06 00:00:22;;;;;;;0.00;0.00;;;15.10;91.50;;;;;;4207480;28;20051;-60
2022/11/06 00:03:03;;;;;;;0.00;0.00;;;15.10;91.50;;;;;;4209081;28;20046;-61
2022/11/06 00:08:42;;;;;;;0.47;0.32;;;15.10;91.60;;;;;;4206145;28;20054;-61
2022/11/06 00:11:23;;;;;;;2.33;1.75;;;15.10;91.50;;;;;;4193598;28;20063;-61
2022/11/06 00:14:06;;;;;;;0.00;0.00;;;15.10;91.60;;;;;;4203657;28;20441;-61
2022/11/06 00:16:48;;;;;;;0.00;0.00;;;15.10;91.50;;;;;;4175236;28;20048;-61
2022/11/06 00:19:28;;;;;;;;;;;15.10;91.50;;;;;;4195422;28;20575;-60
2022/11/06 00:22:09;;;;;;;0.10;0.10;;;15.10;91.40;;;;;;4208860;28;19957;-65
2022/11/06 00:24:50;;;;;;;0.00;0.00;;;15.10;91.40;;;;;;4175202;28;20052;-60
2022/11/06 00:27:31;;;;;;;0.00;0.00;;;15.10;91.40;;;;;;4175245;28;20051;-60
2022/11/06 00:30:14;;;;;;;0.00;0.00;;;15.10;91.40;;;;;;4206530;28;20501;-60
2022/11/06 00:32:55;;;;;;;0.00;0.00;;;15.10;91.50;;;;;;4208297;28;20441;-60
2022/11/06 00:35:37;;;;;;;0.13;0.13;;;15.10;91.50;;;;;;4208041;28;20422;-60
2022/11/06 00:38:18;;;;;;;0.00;0.00;;;15.10;91.50;;;;;;4193386;28;20048;-60
2022/11/06 00:41:02;;;;;;;0.38;0.38;;;15.10;91.50;;;;;;4175690;28;20060;-60
2022/11/06 00:43:47;;;;;;;0.00;0.00;;;15.10;91.40;;;;;;4186220;28;20064;-60
2022/11/06 00:46:30;;;;;;;0.00;0.00;;;15.00;91.50;;;;;;4191939;28;20060;-61
2022/11/06 00:49:11;;;;;;;0.00;0.00;;;15.10;91.50;;;;;;4196606;28;20113;-60
2022/11/06 00:51:52;;;;;;;0.20;0.20;;;15.10;91.90;;;;;;4208546;28;20083;-61
2022/11/06 00:54:32;;;;;;;0.00;0.00;;;15.10;91.50;;;;;;4207037;28;20059;-60
2022/11/06 00:57:13;;;;;;;0.00;0.00;;;15.10;91.50;;;;;;4208177;28;20051;-61
2022/11/06 00:59:54;;;;;;;0.00;0.00;;;15.00;91.50;;;;;;4195898;28;20059;-61
2022/11/06 01:02:37;;;;;;;0.00;0.00;;;15.00;91.50;;;;;;4192178;28;20113;-61
2022/11/06 01:05:18;;;;;;;0.00;0.00;;;15.00;91.50;;;;;;4205523;28;20063;-61
2022/11/06 01:07:59;;;;;;;0.00;0.00;;;15.00;91.50;;;;;;4208538;28;20051;-61
2022/11/06 01:10:40;;;;;;;0.00;0.00;;;15.00;91.50;;;;;;4175536;28;20067;-61
2022/11/06 01:13:21;;;;;;;0.00;0.00;;;15.00;91.50;;;;;;4187582;28;20046;-60
2022/11/06 01:16:04;;;;;;;0.30;0.30;;;15.00;91.50;;;;;;4208491;28;20448;-60
2022/11/06 01:18:46;;;;;;;0.00;0.00;;;15.00;91.50;;;;;;4202932;28;20144;-60
2022/11/06 01:21:29;;;;;;;0.10;0.10;;;15.00;91.50;;;;;;4190793;28;20055;-60
2022/11/06 01:24:12;;;;;;;0.15;0.15;;;15.00;91.50;;;;;;4190613;28;20052;-60
2022/11/06 01:26:54;;;;;;;0.00;0.00;;;15.00;91.60;;;;;;4191338;28;20064;-61
2022/11/06 01:29:55;;;;;;;0.00;0.00;;;15.00;91.60;;;;;;4202925;28;20411;-60
2022/11/06 01:32:36;;;;;;;0.00;0.00;;;15.00;91.50;;;;;;4208508;28;20055;-60
2022/11/06 01:35:19;;;;;;;0.00;0.00;;;15.00;91.50;;;;;;4208422;28;20066;-60
2022/11/06 01:38:00;;;;;;;0.52;0.52;;;15.00;91.50;;;;;;4208481;28;20386;-60
2022/11/06 01:40:41;;;;;;;0.00;0.00;;;15.00;91.50;;;;;;4175159;28;20052;-60
2022/11/06 01:43:24;;;;;;;0.10;0.10;;;15.00;91.50;;;;;;4189429;28;20502;-60
2022/11/06 01:46:05;;;;;;;0.00;0.00;;;15.00;91.50;;;;;;4196305;28;20059;-61
2022/11/06 01:48:50;;;;;;;0.00;0.00;;;14.90;91.50;;;;;;4203381;28;20059;-61
2022/11/06 01:51:35;;;;;;;0.68;0.38;;;14.90;91.50;;;;;;4191413;28;20048;-60
2022/11/06 01:54:17;;;;;;;0.00;0.00;;;15.00;91.90;;;;;;4191466;28;20051;-60
2022/11/06 01:57:01;;;;;;;0.20;0.20;;;14.90;91.50;;;;;;4201416;28;20501;-60
2022/11/06 01:59:44;;;;;;;0.10;0.10;;;15.00;91.50;;;;;;4186257;28;20051;-60
2022/11/06 02:02:25;;;;;;;0.00;0.00;;;15.00;91.50;;;;;;4194641;28;20051;-60
2022/11/06 02:05:07;;;;;;;0.70;0.70;;;14.90;91.50;;;;;;4194599;28;20379;-61
2022/11/06 02:07:49;;;;;;;0.55;0.25;;;15.00;91.50;;;;;;4177599;28;20569;-61
2022/11/06 02:10:30;;;;;;;0.00;0.00;;;14.90;91.50;;;;;;4177920;28;20079;-60
2022/11/06 02:13:21;;;;;;;0.00;0.00;;;14.90;91.50;;;;;;4188725;28;20044;-61
2022/11/06 02:16:09;;;;;;;0.15;0.13;;;14.90;91.50;;;;;;4194088;28;20047;-61
2022/11/06 02:19:01;;;;;;;0.00;0.00;;;14.90;91.50;;;;;;4199960;28;20525;-60
2022/11/06 02:22:13;;;;;;;0.00;0.00;;;14.90;92.00;;;;;;4206849;28;20051;-61
2022/11/06 02:25:20;;;;;;;0.03;0.03;;;14.90;91.60;;;;;;4192674;28;20114;-61
2022/11/06 02:28:08;;;;;;;0.60;0.60;;;14.90;91.60;;;;;;4185443;28;20051;-61
2022/11/06 02:30:51;;;;;;;0.00;0.00;;;14.90;91.60;;;;;;4177278;28;20135;-60
2022/11/06 02:33:36;;;;;;;0.50;0.50;;;14.90;91.60;;;;;;4177579;28;20150;-60
2022/11/06 02:36:22;;;;;;;0.13;0.13;;;14.90;91.60;;;;;;4177459;28;20498;-61
2022/11/06 02:39:07;;;;;;;0.00;0.00;;;14.90;91.60;;;;;;4192604;28;20509;-60
2022/11/06 02:41:51;;;;;;;0.00;0.00;;;14.90;91.60;;;;;;4187868;28;20116;-61
2022/11/06 02:44:37;;;;;;;0.05;0.05;;;14.90;91.70;;;;;;4203846;28;20178;-60
2022/11/06 02:47:19;;;;;;;0.55;0.55;;;14.90;91.70;;;;;;4210261;28;20043;-61
2022/11/06 02:50:06;;;;;;;0.13;0.13;;;14.90;91.70;;;;;;4194792;28;20055;-60
2022/11/06 02:52:51;;;;;;;0.10;0.10;;;15.00;91.60;;;;;;4176911;28;20051;-61
2022/11/06 02:55:37;;;;;;;0.00;0.00;;;15.00;91.50;;;;;;4176919;28;20052;-61
2022/11/06 02:58:23;;;;;;;0.00;0.00;;;15.00;91.40;;;;;;4178862;28;20052;-60
2022/11/06 03:01:12;;;;;;;0.00;0.00;;;15.10;91.30;;;;;;4207884;28;20074;-60
2022/11/06 03:03:57;;;;;;;0.10;0.10;;;15.10;91.30;;;;;;4208434;28;20525;-61
2022/11/06 03:06:42;;;;;;;0.00;0.00;;;15.10;91.20;;;;;;4209497;28;20153;-60
2022/11/06 03:09:28;;;;;;;0.55;0.55;;;15.10;91.10;;;;;;4199778;28;20052;-60
2022/11/06 03:12:19;;;;;;;0.00;0.00;;;15.20;91.10;;;;;;4193449;28;20501;-60
2022/11/06 03:15:06;;;;;;;0.00;0.00;;;15.10;91.10;;;;;;4192757;28;20051;-60
2022/11/06 03:17:52;;;;;;;0.00;0.00;;;15.10;91.10;;;;;;4209974;28;20047;-61
2022/11/06 03:20:37;;;;;;;0.00;0.00;;;15.10;91.10;;;;;;4177025;28;20059;-60
2022/11/06 03:23:24;;;;;;;0.20;0.20;;;15.10;91.10;;;;;;4176974;28;20101;-60
2022/11/06 03:26:13;;;;;;;0.00;0.00;;;15.10;91.20;;;;;;4175307;28;20060;-60
2022/11/06 03:28:57;;;;;;;0.10;0.10;;;15.10;91.20;;;;;;4180415;28;20075;-60
2022/11/06 03:31:43;;;;;;;0.00;0.00;;;15.00;91.20;;;;;;4193598;28;20475;-60
2022/11/06 03:34:31;;;;;;;0.00;0.00;;;15.00;91.20;;;;;;4209675;27;20042;-60
2022/11/06 03:37:18;;;;;;;0.00;0.00;;;15.00;91.30;;;;;;4208312;28;20051;-61
2022/11/06 03:40:03;;;;;;;0.40;0.40;;;14.90;91.40;;;;;;4194085;28;20142;-60
2022/11/06 03:42:46;;;;;;;0.08;0.08;;;15.00;91.40;;;;;;4176570;28;20068;-61
2022/11/06 03:45:29;;;;;;;0.10;0.10;;;15.00;91.50;;;;;;4176350;28;20434;-60
2022/11/06 03:48:15;;;;;;;0.00;0.00;;;14.90;91.50;;;;;;4176281;28;20052;-60
2022/11/06 03:51:03;;;;;;;0.95;0.47;;;14.90;91.60;;;;;;4164911;28;20071;-61
2022/11/06 03:53:48;;;;;;;0.00;0.00;;;14.90;91.50;;;;;;4176433;28;20056;-60
2022/11/06 03:56:35;;;;;;;0.00;0.00;;;14.90;91.50;;;;;;4176330;28;20052;-60
2022/11/06 03:59:22;;;;;;;0.00;0.00;;;14.90;92.00;;;;;;4183242;28;20074;-61
2022/11/06 04:02:03;;;;;;;0.00;0.00;;;14.90;91.60;;;;;;4192546;28;20498;-61
2022/11/06 04:04:49;;;;;;;0.00;0.00;;;15.00;91.50;;;;;;4191888;28;20044;-61
2022/11/06 04:07:35;;;;;;;0.00;0.00;;;15.00;91.40;;;;;;4175747;28;20063;-60
2022/11/06 04:16:13;;;;;;;0.00;0.00;;;15.20;91.10;;;;;;4175284;28;20443;-60
2022/11/06 04:18:54;;;;;;;3.75;0.28;;;15.20;91.00;;;;;;4187427;28;20560;-60
2022/11/06 04:21:48;;;;;;;0.00;0.00;;;15.30;91.00;;;;;;4208728;28;20067;-60
2022/11/06 04:27:50;;;;;;;0.00;0.00;;;15.30;90.90;;;;;;4208824;28;20059;-60
2022/11/06 04:30:40;;;;;;;0.00;0.00;;;15.20;90.90;;;;;;4175616;28;20125;-61
2022/11/06 04:33:27;;;;;;;0.20;0.20;;;15.30;90.90;;;;;;4176018;28;20075;-60
2022/11/06 04:36:16;;;;;;;0.00;0.00;;;15.20;90.90;;;;;;4175595;28;20056;-61
2022/11/06 04:39:05;;;;;;;0.00;0.00;;;15.20;90.90;;;;;;4193705;28;20055;-60
2022/11/06 04:41:57;;;;;;;0.00;0.00;;;15.20;91.00;;;;;;4208988;28;20067;-60
2022/11/06 04:44:41;;;;;;;0.00;0.00;;;15.20;91.00;;;;;;4191783;28;20048;-62
2022/11/06 04:47:23;;;;;;;0.28;0.28;;;15.20;91.00;;;;;;4192309;28;20549;-60
2022/11/06 04:50:08;;;;;;;0.00;0.00;;;15.10;91.00;;;;;;4175185;28;20052;-61
2022/11/06 04:52:49;;;;;;;0.00;0.00;;;15.10;91.10;;;;;;4175663;28;20060;-60
2022/11/06 04:55:30;;;;;;;0.20;0.20;;;15.10;91.20;;;;;;4175406;28;20060;-60
2022/11/06 04:58:12;;;;;;;0.00;0.00;;;15.20;91.20;;;;;;4184960;28;20059;-60
2022/11/06 05:00:53;;;;;;;0.25;0.22;;;15.20;91.10;;;;;;4193037;28;20051;-60
2022/11/06 05:03:34;;;;;;;0.10;0.10;;;15.20;91.00;;;;;;4192137;28;20052;-61
2022/11/06 05:06:16;;;;;;;0.00;0.00;;;15.30;91.00;;;;;;4191716;28;20047;-61
2022/11/06 05:08:57;;;;;;;0.00;0.00;;;15.30;90.90;;;;;;4198882;28;20415;-61
2022/11/06 05:11:38;;;;;;;0.00;0.00;;;15.30;91.10;;;;;;4191723;28;20198;-61
2022/11/06 05:14:21;;;;;;;0.10;0.10;;;15.30;90.80;;;;;;4190271;28;20067;-61
2022/11/06 05:17:02;;;;;;;0.00;0.00;;;15.30;91.20;;;;;;4191648;28;20149;-62
2022/11/06 05:19:43;;;;;;;0.00;0.00;;;15.30;90.90;;;;;;4188247;28;20093;-61
2022/11/06 05:25:21;;;;;;;0.13;0.13;;;15.20;90.80;;;;;;4208126;28;20196;-60
2022/11/06 05:28:04;;;;;;;0.00;0.00;;;15.20;90.90;;;;;;4202741;28;20404;-60
2022/11/06 05:30:46;;;;;;;0.00;0.00;;;15.20;90.90;;;;;;4193341;28;20313;-61
2022/11/06 05:33:27;;;;;;;0.65;0.65;;;15.20;91.00;;;;;;4197844;28;20085;-61
2022/11/06 05:36:08;;;;;;;2.33;1.05;;;15.20;91.00;;;;;;4211690;28;20497;-61
2022/11/06 05:38:49;;;;;;;0.38;0.32;;;15.20;91.00;;;;;;4200084;28;20052;-60
2022/11/06 05:41:30;;;;;;;0.00;0.00;;;15.20;91.30;;;;;;4194808;28;20055;-60
2022/11/06 05:44:11;;;;;;;3.97;1.35;;;15.20;90.90;;;;;;4196501;28;20059;-60
2022/11/06 05:46:53;;;;;;;0.53;0.53;;;15.20;90.90;;;;;;4211513;28;20129;-61
2022/11/06 05:49:34;;;;;;;0.00;0.00;;;15.30;90.80;;;;;;4177896;28;20303;-61
2022/11/06 05:52:15;;;;;;;0.00;0.00;;;15.30;90.70;;;;;;4177963;28;20120;-61
2022/11/06 05:54:56;;;;;;;0.15;0.15;;;15.40;90.60;;;;;;4197106;28;20075;-61
2022/11/06 05:57:37;;;;;;;0.95;0.95;;;15.40;90.60;;;;;;4210325;28;20051;-60
2022/11/06 06:00:17;;;;;;;0.00;0.00;;;15.40;90.60;;;;;;4210776;28;20121;-69
2022/11/06 06:03:01;;;;;;;0.00;0.00;;;15.40;90.50;;;;;;4210686;28;20066;-63
2022/11/06 06:05:42;;;;;;;0.10;0.10;;;15.40;90.50;;;;;;4210720;28;20071;-61
2022/11/06 06:08:23;;;;;;;0.17;0.17;;;15.50;90.40;;;;;;4201368;28;20050;-60
2022/11/06 06:11:07;;;;;;;0.00;0.00;;;15.50;90.40;;;;;;4210706;28;20105;-60
2022/11/06 06:13:48;;;;;;;3.50;1.55;;;15.50;90.40;;;;;;4201399;28;20051;-60
2022/11/06 06:16:29;;;;;;;0.00;0.00;;;15.50;90.40;;;;;;4210810;28;20176;-60
2022/11/06 06:19:11;;;;;;;0.57;0.52;;;15.40;90.50;;;;;;4177508;28;20142;-61
2022/11/06 06:21:52;;;;;;;0.00;0.00;;;15.40;90.50;;;;;;4177774;28;20168;-61
2022/11/06 06:24:34;;;;;;;0.00;0.00;;;15.40;90.50;;;;;;4183836;27;20098;-62
2022/11/06 06:27:14;;;;;;;;;;;15.40;90.50;;;;;;4208331;27;20060;-61
2022/11/06 06:29:55;;;;;;;0.00;0.00;;;15.40;90.60;;;;;;4177762;28;19928;-60
2022/11/06 06:32:36;;;;;;;0.00;0.00;;;15.30;90.60;;;;;;4177476;28;20542;-61
2022/11/06 06:35:18;;;;;;;0.00;0.00;;;15.30;90.70;;;;;;4160913;28;20056;-60
2022/11/06 06:37:59;;;;;;;0.00;0.00;;;15.30;91.20;;;;;;4208151;27;20525;-60
2022/11/06 06:40:40;;;;;;;0.30;0.30;;;15.40;90.90;;;;;;4209925;28;20055;-60
2022/11/06 06:43:21;;;;;;;0.00;0.00;;;15.40;90.80;;;;;;4196285;28;20100;-61
2022/11/06 06:46:04;;;;;;;0.00;0.00;;;15.40;90.60;;;;;;4192386;28;20109;-60
2022/11/06 06:48:45;;;;;;;0.00;0.00;;;15.50;90.60;;;;;;4193511;28;20055;-60
2022/11/06 06:51:27;;;;;;;0.00;0.00;;;15.50;90.40;;;;;;4193452;28;20044;-60
2022/11/06 06:54:08;;;;;;;0.10;0.10;;;15.60;90.70;;;;;;4193496;28;20043;-60
2022/11/06 06:56:48;;;;;;;0.00;0.00;;;15.70;90.00;;;;;;4193347;28;20505;-60
2022/11/06 06:59:29;;;;;;;0.00;0.00;;;15.80;89.40;;;;;;4199628;28;20098;-60
2022/11/06 07:02:10;;;;;;;0.15;0.15;;;16.00;88.70;;;;;;4193575;28;20510;-60
2022/11/06 07:04:51;;;;;;;0.60;0.60;;;16.10;88.00;;;;;;4176507;28;20102;-61
2022/11/06 07:07:33;;;;;;;0.00;0.00;;;16.30;87.20;;;;;;4193251;28;20408;-61
2022/11/06 07:10:14;;;;;;;0.00;0.00;;;16.50;86.50;;;;;;4176771;28;20403;-60
2022/11/06 07:12:55;;;;;;;0.03;0.03;;;16.60;85.80;;;;;;4205065;28;20063;-61
2022/11/06 07:15:36;;;;;;;0.00;0.00;;;16.70;85.10;;;;;;4193197;28;20054;-61
2022/11/06 07:18:17;;;;;;;0.00;0.00;;;16.70;84.60;;;;;;4192928;28;20051;-61
2022/11/06 07:20:58;;;;;;;7.70;1.67;;;16.80;84.50;;;;;;4192067;28;20412;-61
2022/11/06 07:23:40;;;;;;;0.00;0.00;;;16.80;84.70;;;;;;4193261;28;20051;-61
2022/11/06 07:26:20;;;;;;;0.00;0.00;;;16.80;85.00;;;;;;4190871;28;20105;-61
2022/11/06 07:29:01;;;;;;;0.00;0.00;;;16.80;84.90;;;;;;4199128;28;20402;-60
2022/11/06 07:31:42;;;;;;;0.10;0.10;;;16.80;84.90;;;;;;4191227;28;20565;-61
2022/11/06 07:34:23;;;;;;;0.00;0.00;;;16.80;85.00;;;;;;4192573;28;20063;-61
2022/11/06 07:37:05;;;;;;;0.00;0.00;;;16.70;85.80;;;;;;4192763;28;20083;-62
2022/11/06 07:39:48;;;;;;;0.90;0.90;;;16.70;84.60;;;;;;4205650;28;20133;-61
2022/11/06 07:42:29;;;;;;;0.00;0.00;;;16.80;84.30;;;;;;4207397;28;20058;-61
2022/11/06 07:45:16;;;;;;;0.00;0.00;;;16.80;84.00;;;;;;4191819;28;20510;-61
2022/11/06 07:47:57;;;;;;;0.03;0.03;;;16.80;83.70;;;;;;4192981;28;20190;-61
2022/11/06 07:50:39;;;;;;;0.00;0.00;;;16.70;83.50;;;;;;4181779;28;20154;-62
2022/11/06 07:53:19;;;;;;;0.00;0.00;;;16.70;83.50;;;;;;4192021;28;20692;-62
2022/11/06 07:56:02;;;;;;;0.17;0.17;;;16.70;83.60;;;;;;4192268;28;20286;-63
2022/11/06 07:58:43;;;;;;;1.27;0.65;;;16.60;83.60;;;;;;4192176;28;20605;-60
2022/11/06 08:01:24;;;;;;;0.00;0.00;;;16.50;83.80;;;;;;4191172;28;20449;-60
2022/11/06 08:04:06;;;;;;;0.00;0.00;;;16.60;84.30;;;;;;4190690;28;20056;-64
2022/11/06 08:06:46;;;;;;;0.00;0.00;;;16.60;85.20;;;;;;4175556;28;20059;-60
2022/11/06 08:09:27;;;;;;;0.00;0.00;;;16.60;85.00;;;;;;4176459;28;20044;-60
2022/11/06 08:12:09;;;;;;;0.00;0.00;;;16.60;84.50;;;;;;4183309;28;20166;-64
2022/11/06 08:14:50;;;;;;;0.00;0.00;;;16.50;84.30;;;;;;4192508;28;20066;-64
2022/11/06 08:17:31;;;;;;;0.05;0.05;;;16.50;84.60;;;;;;4190915;28;20051;-65
2022/11/06 08:20:12;;;;;;;0.00;0.00;;;16.50;85.20;;;;;;4194771;28;20462;-64
2022/11/06 08:22:57;;;;;;;1.27;1.20;;;16.50;86.00;;;;;;4208969;28;20513;-63
2022/11/06 08:25:40;;;;;;;0.00;0.00;;;16.50;86.20;;;;;;4188117;28;20131;-64
2022/11/06 08:28:22;;;;;;;0.00;0.00;;;16.50;86.50;;;;;;4183363;28;20201;-64
2022/11/06 08:31:04;;;;;;;1.95;1.85;;;16.40;87.30;;;;;;4206586;28;20059;-64
2022/11/06 08:33:45;;;;;;;0.95;0.88;;;16.40;86.40;;;;;;4208558;28;20116;-64
2022/11/06 08:36:26;;;;;;;0.00;0.00;;;16.30;86.40;;;;;;4208625;28;20043;-64
2022/11/06 08:39:07;;;;;;;0.00;0.00;;;16.30;86.40;;;;;;4208254;28;20112;-65
2022/11/06 08:41:48;;;;;;;0.00;0.00;;;16.30;86.20;;;;;;4208573;28;20043;-65
2022/11/06 08:44:30;;;;;;;0.00;0.00;;;16.30;86.00;;;;;;4200464;28;20403;-66
2022/11/06 08:47:11;;;;;;;0.00;0.00;;;16.30;85.90;;;;;;4208237;28;20054;-64
2022/11/06 08:49:52;;;;;;;0.00;0.00;;;16.20;85.80;;;;;;4208029;28;20058;-61
2022/11/06 08:52:33;;;;;;;0.10;0.10;;;16.20;85.80;;;;;;4208200;28;20080;-60
2022/11/06 08:55:14;;;;;;;0.00;0.00;;;16.10;85.80;;;;;;4208788;28;20051;-61
2022/11/06 08:57:55;;;;;;;0.00;0.00;;;16.10;85.90;;;;;;4208589;28;20410;-61
2022/11/06 09:00:38;;;;;;;0.00;0.00;;;16.10;86.00;;;;;;4207182;28;20125;-61
2022/11/06 09:03:18;;;;;;;0.00;0.00;;;16.00;85.90;;;;;;4206531;28;20055;-63
2022/11/06 09:05:59;;;;;;;0.00;0.00;;;15.90;86.00;;;;;;4185023;28;20051;-63
2022/11/06 09:08:40;;;;;;;0.80;0.80;;;15.90;86.40;;;;;;4178416;28;20538;-63
2022/11/06 09:11:21;;;;;;;0.35;0.35;;;15.90;86.50;;;;;;4189440;28;20125;-63
2022/11/06 09:14:02;;;;;;;0.00;0.00;;;15.80;87.30;;;;;;4193089;28;20059;-63
2022/11/06 09:16:45;;;;;;;0.00;0.00;;;15.80;86.60;;;;;;4196681;28;20059;-63
2022/11/06 09:19:26;;;;;;;0.00;0.00;;;15.70;86.60;;;;;;4194846;28;20059;-63
2022/11/06 09:22:07;;;;;;;0.00;0.00;;;15.70;86.80;;;;;;4182230;28;20598;-63
2022/11/06 09:24:49;;;;;;;0.00;0.00;;;15.80;86.60;;;;;;4194491;28;20324;-63
2022/11/06 09:27:44;;;;;;;0.00;0.00;;;15.90;86.30;;;;;;4177853;28;20048;-62
2022/11/06 09:30:25;;;;;;;;;;;15.90;85.80;;;;;;4189740;28;20050;-62
2022/11/06 09:33:07;;;;;;;;;;;15.90;85.50;;;;;;4177993;28;20006;-63
2022/11/06 09:35:52;;;;;;;;;;;16.00;85.50;;;;;;4185375;28;19927;-63
2022/11/06 09:38:33;;;;;;;;;;;16.10;85.40;;;;;;4195090;28;20271;-63
2022/11/06 09:41:18;;;;;;;;;;;16.50;85.00;;;;;;4205006;28;19927;-62
2022/11/06 09:44:06;;;;;;;;;;;17.00;81.70;;;;;;4197378;28;19927;-62
2022/11/06 09:46:48;;;;;;;;;;;17.70;78.40;;;;;;4194894;28;20061;-62
2022/11/06 09:49:33;;;;;;;;;;;18.40;75.60;;;;;;4194935;28;20028;-63
2022/11/06 09:52:17;;;;;;;;;;;18.90;72.70;;;;;;4190665;28;19932;-62
2022/11/06 09:55:01;;;;;;;;;;;19.40;70.50;;;;;;4189056;28;19942;-63
2022/11/06 09:57:43;;;;;;;;;;;19.80;68.70;;;;;;4181936;28;19988;-62
2022/11/06 10:00:24;;;;;;;;;;;20.20;67.30;;;;;;4194975;28;20444;-62
2022/11/06 10:03:12;;;;;;;;;;;20.30;66.50;;;;;;4204531;28;19927;-62
2022/11/06 10:05:54;;;;;;;;;;;20.40;66.20;;;;;;4196396;28;19927;-62
2022/11/06 10:08:35;;;;;;;;;;;20.30;66.30;;;;;;4186242;28;19927;-62
2022/11/06 10:11:26;;;;;;;;;;;20.10;66.90;;;;;;4177403;28;19927;-62
2022/11/06 10:14:11;;;;;;;;;;;19.90;67.50;;;;;;4192147;28;20270;-63
2022/11/06 10:16:54;;;;;;;;;;;19.60;68.50;;;;;;4193123;28;20774;-63
2022/11/06 10:19:38;;;;;;;;;;;19.40;69.50;;;;;;4195422;28;19932;-62
2022/11/06 10:22:24;;;;;;;;;;;19.10;70.40;;;;;;4192972;28;19947;-63
2022/11/06 10:25:08;;;;;;;;;;;19.00;71.20;;;;;;4194153;28;20029;-62
2022/11/06 10:27:55;;;;;;;;;;;18.90;71.60;;;;;;4194482;28;19955;-64
2022/11/06 10:30:41;;;;;;;;;;;18.90;71.60;;;;;;4193055;28;19928;-64
2022/11/06 10:33:26;;;;;;;;;;;18.90;71.70;;;;;;4198974;28;19927;-64
2022/11/06 10:36:10;;;;;;;;;;;18.90;71.80;;;;;;4211218;28;19927;-65
2022/11/06 10:38:53;;;;;;;;;;;18.90;71.90;;;;;;4210669;28;19931;-64
2022/11/06 10:41:37;;;;;;;;;;;18.90;71.90;;;;;;4211154;28;20312;-64
2022/11/06 10:44:22;;;;;;;;;;;18.90;72.60;;;;;;4203870;28;19931;-64
2022/11/06 10:47:04;;;;;;;;;;;18.80;72.10;;;;;;4194571;28;19927;-65
2022/11/06 10:49:48;;;;;;;;;;;18.80;72.00;;;;;;4183825;28;19931;-65
2022/11/06 10:52:34;;;;;;;;;;;18.80;72.10;;;;;;4193995;28;20417;-65
2022/11/06 10:55:39;;;;;;;;;;;18.80;72.50;;;;;;4177596;28;20009;-65
2022/11/06 10:58:23;;;;;;;;;;;18.70;72.70;;;;;;4194061;27;19931;-65
2022/11/06 11:01:04;;;;;;;;;;;18.70;72.70;;;;;;4200982;27;19935;-64
2022/11/06 11:03:46;;;;;;;;;;;18.70;72.80;;;;;;4193433;28;20078;-65
2022/11/06 11:06:26;;;;;;;;;;;18.80;72.80;;;;;;4192947;28;19931;-65
2022/11/06 11:09:26;;;;;;;;;;;18.80;72.40;;;;;;4174483;28;20050;-65
2022/11/06 11:12:19;;;;;;;;;;;18.90;73.20;;;;;;4176863;28;20022;-65
2022/11/06 11:15:14;;;;;;;;;;;18.90;72.00;;;;;;4192938;28;19939;-65
2022/11/06 11:18:15;;;;;;;;;;;18.90;72.00;;;;;;4188562;28;19927;-65
2022/11/06 11:21:07;;;;;;;;;;;18.80;72.10;;;;;;4178081;28;19931;-65
2022/11/06 11:24:04;;;;;;;;;;;18.70;72.70;;;;;;4168998;28;20211;-66
2022/11/06 11:26:46;;;;;;;;;;;18.70;73.20;;;;;;4175633;28;19928;-64
2022/11/06 11:29:29;;;;;;;;;;;18.50;73.50;;;;;;4176349;28;19927;-66
2022/11/06 11:32:13;;;;;;;;;;;18.50;74.00;;;;;;4176692;28;20063;-65
2022/11/06 11:34:56;;;;;;;;;;;18.40;74.60;;;;;;4189011;28;19927;-65
2022/11/06 11:37:37;;;;;;;;;;;18.30;75.40;;;;;;4192958;28;19969;-65
2022/11/06 11:40:19;;;;;;;;;;;18.30;75.90;;;;;;4210000;28;20024;-64
2022/11/06 11:43:15;;;;;;;;;;;18.30;75.90;;;;;;4203210;28;19926;-65
2022/11/06 11:46:03;;;;;;;;;;;18.40;75.70;;;;;;4176285;28;19927;-65
2022/11/06 11:48:45;;;;;;;;;;;18.50;75.40;;;;;;4176857;28;19927;-63
2022/11/06 11:51:32;;;;;;;;;;;18.60;75.10;;;;;;4176783;28;19944;-62
2022/11/06 11:54:17;;;;;;;;;;;18.70;74.90;;;;;;4198495;28;19928;-62
2022/11/06 11:57:00;;;;;;;;;;;18.80;74.60;;;;;;4176289;28;20425;-62
2022/11/06 11:59:47;;;;;;;;;;;18.90;74.20;;;;;;4174696;28;19927;-63
2022/11/06 12:02:28;;;;;;;;;;;19.00;73.90;;;;;;4190507;28;19935;-63
2022/11/06 12:05:12;;;;;;;;;;;19.10;73.70;;;;;;4179692;28;20041;-63
2022/11/06 12:07:55;;;;;;;;;;;19.10;73.30;;;;;;4190007;28;20029;-63
2022/11/06 12:10:37;;;;;;;;;;;19.20;73.10;;;;;;4185604;28;20069;-63
2022/11/06 12:13:19;;;;;;;;;;;19.10;74.10;;;;;;4182294;28;19927;-63
2022/11/06 12:16:01;;;;;;;;;;;19.20;73.70;;;;;;4174239;28;20017;-63
2022/11/06 12:18:45;;;;;;;;;;;19.20;73.70;;;;;;4189490;28;20038;-63
2022/11/06 12:21:27;;;;;;;;;;;19.20;73.50;;;;;;4174321;28;19931;-63
2022/11/06 12:24:13;;;;;;;;;;;19.20;73.60;;;;;;4190004;28;19943;-63
2022/11/06 12:26:55;;;;;;;;;;;19.20;74.60;;;;;;4184987;28;19932;-63
2022/11/06 12:29:38;;;;;;;;;;;19.30;73.70;;;;;;4182582;28;20059;-63
2022/11/06 12:32:23;;;;;;;;;;;19.30;73.70;;;;;;4180522;28;19931;-63
2022/11/06 12:35:06;;;;;;;;;;;19.30;73.60;;;;;;4190245;28;20062;-62
2022/11/06 12:37:52;;;;;;;;;;;19.40;74.00;;;;;;4183182;28;20062;-62
2022/11/06 12:40:37;;;;;;;;;;;19.30;74.20;;;;;;4186014;28;19927;-62
2022/11/06 12:43:22;;;;;;;;;;;19.20;74.70;;;;;;4177156;28;19936;-64
2022/11/06 12:46:08;;;;;;;;;;;19.10;75.10;;;;;;4173458;28;20395;-64
2022/11/06 12:49:04;;;;;;;;;;;19.10;75.80;;;;;;4189212;28;19954;-63
2022/11/06 12:51:51;;;;;;;;;;;19.00;76.00;;;;;;4182621;28;19931;-63
2022/11/06 12:54:38;;;;;;;;;;;19.00;77.40;;;;;;4189862;28;19932;-63
2022/11/06 12:57:27;;;;;;;;;;;18.90;76.90;;;;;;4185552;28;19979;-64
2022/11/06 13:00:10;;;;;;;;;;;18.90;77.40;;;;;;4181200;28;20038;-63
2022/11/06 13:03:00;;;;;;;;;;;18.80;77.60;;;;;;4189727;28;20308;-63
2022/11/06 13:05:45;;;;;;;;;;;18.80;78.10;;;;;;4188942;28;19931;-63
2022/11/06 13:08:31;;;;;;;;;;;18.80;78.00;;;;;;4172524;28;20421;-63
2022/11/06 13:11:20;;;;;;;;;;;18.80;78.00;;;;;;4173471;28;20062;-63
2022/11/06 13:14:10;;;;;;;;;;;18.80;78.10;;;;;;4176510;28;19936;-68
2022/11/06 13:16:56;;;;;;;;;;;18.70;78.30;;;;;;4189629;28;19931;-68
2022/11/06 13:19:38;;;;;;;;;;;18.70;78.30;;;;;;4184475;28;20344;-66
2022/11/06 13:22:23;;;;;;;;;;;18.80;78.20;;;;;;4179274;28;19931;-66
2022/11/06 13:25:07;;;;;;;;;;;18.90;77.70;;;;;;4177197;28;20036;-66
2022/11/06 13:27:51;;;;;;;;;;;18.90;77.60;;;;;;4188234;28;19928;-67
2022/11/06 13:30:34;;;;;;;;;;;18.90;77.50;;;;;;4179044;28;20138;-66
2022/11/06 13:33:16;;;;;;;;;;;18.90;77.50;;;;;;4180745;28;19947;-66
2022/11/06 13:35:58;;;;;;;;;;;18.90;77.80;;;;;;4189021;28;20347;-66
2022/11/06 13:38:40;;;;;;;;;;;18.80;78.00;;;;;;4187939;28;19958;-66
2022/11/06 13:41:23;;;;;;;;;;;18.70;78.30;;;;;;4173300;28;19931;-65
2022/11/06 13:44:05;;;;;;;;;;;18.70;78.70;;;;;;4183967;28;20460;-66
2022/11/06 13:46:51;;;;;;;;;;;18.60;80.00;;;;;;4173559;28;20043;-66
2022/11/06 13:49:34;;;;;;;;;;;18.50;79.30;;;;;;4187242;28;19950;-66
2022/11/06 13:52:16;;;;;;;;;;;18.50;79.60;;;;;;4179376;28;19977;-65
2022/11/06 13:55:03;;;;;;;;;;;18.50;79.80;;;;;;4181787;28;19931;-64
2022/11/06 13:58:03;;;;;;;;;;;18.50;79.80;;;;;;4184025;28;20387;-64
2022/11/06 14:00:54;;;;;;;;;;;18.50;79.90;;;;;;4179167;28;20920;-64
2022/11/06 14:03:45;;;;;;;;;;;18.50;81.20;;;;;;4189924;28;19932;-65
2022/11/06 14:06:27;;;;;;;;;;;18.40;80.50;;;;;;4194294;28;19953;-64
2022/11/06 14:09:09;;;;;;;;;;;18.40;80.50;;;;;;4193885;28;19931;-64
2022/11/06 14:11:53;;;;;;;;;;;18.40;80.60;;;;;;4178228;28;19931;-64
2022/11/06 14:14:34;;;;;;;;;;;18.30;80.80;;;;;;4178338;28;19944;-65
2022/11/06 14:17:20;;;;;;;;;;;18.40;81.40;;;;;;4178355;28;20010;-64
2022/11/06 14:20:05;;;;;;;;;;;18.40;80.20;;;;;;4189514;28;19926;-65
2022/11/06 14:22:46;;;;;;;;;;;18.50;79.80;;;;;;4211175;28;20507;-64
2022/11/06 14:25:46;;;;;;;;;;;18.60;79.30;;;;;;4211506;28;20421;-64
2022/11/06 14:28:33;;;;;;;;;;;18.70;78.70;;;;;;4210890;28;19927;-65
2022/11/06 14:31:35;;;;;;;;;;;18.90;78.20;;;;;;4195583;28;20015;-64
2022/11/06 14:34:28;;;;;;;;;;;19.00;77.60;;;;;;4194216;28;19927;-64
2022/11/06 14:37:36;;;;;;;;;;;19.10;76.90;;;;;;4193940;28;19989;-65
2022/11/06 14:40:30;;;;;;;;;;;19.10;77.30;;;;;;4200765;28;19931;-64
2022/11/06 14:43:16;;;;;;;;;;;19.20;77.00;;;;;;4209987;27;19931;-64
2022/11/06 14:45:58;;;;;;;;;;;19.20;75.80;;;;;;4211105;27;19927;-63
2022/11/06 14:48:40;;;;;;;;;;;19.20;75.90;;;;;;4210787;27;19926;-64
2022/11/06 14:51:26;;;;;;;;;;;19.20;75.90;;;;;;4194139;28;19927;-63
2022/11/06 14:54:18;;;;;;;;;;;19.20;75.70;;;;;;4194252;28;19931;-64
2022/11/06 14:56:59;;;;;;;;;;;19.20;76.60;;;;;;4176899;28;19935;-64
2022/11/06 14:59:40;;;;;;;;;;;19.20;75.90;;;;;;4179304;28;19928;-64
2022/11/06 15:02:23;;;;;;;;;;;19.10;76.10;;;;;;4210167;28;19927;-64
2022/11/06 15:05:05;;;;;;;;;;;19.00;76.60;;;;;;4210340;28;20336;-64